Duckwater, Nevada Weather observations

Data are for 10 minute period ending at time listed.
 Day   Time   Solar   Ave.   Ave.  Ave.  Vector  Max.   Baro.   Total    
  of    of     Rad.   Air    Rel.  Wind   Wind   Wind  Press.  Precip.   
Year   Day            Temp.  Hum.  Speed  Dir.   Gust                    
2016   (PST)   w/m2    F      %     mph   deg.    mph    mb.     in.    
-----------------------------------------------------------------------
 147    0:00      0   42.9    78    6.8   344    10.9   834.1   0.00  
 147    0:10      0   42.2    80    7.0   351     9.9   834.0   0.00  
 147    0:20      0   42.0    81    6.9   355     9.9   834.0   0.00  
 147    0:30      0   41.9    82    6.2   359     8.8   834.0   0.00  
 147    0:40      0   42.1    82    7.1   360    11.0   834.0   0.00  
 147    0:50      0   42.0    83    7.2     0    10.7   833.9   0.00  
 147    1:00      0   42.3    83    6.4     5     9.7   833.9   0.00  
 147    1:10      0   42.7    81    7.9     6    11.8   833.9   0.00  
 147    1:20      0   42.8    81    8.1     4    12.8   833.8   0.00  
 147    1:30      0   42.8    80    7.4     1    11.7   833.8   0.00  
 147    1:40      0   42.8    80    6.8     1    10.9   833.8   0.00  
 147    1:50      0   43.1    80    6.9     9    11.0   833.8   0.00  
 147    2:00      0   43.9    77    6.9    10    10.3   833.9   0.00  
 147    2:10      0   44.2    76    7.1     3    11.5   833.9   0.00  
 147    2:20      0   43.9    78    6.0     2     9.2   833.9   0.00  
 147    2:30      0   43.7    78    5.4   358     8.6   833.8   0.00  
 147    2:40      0   43.4    79    4.8     1     8.2   833.8   0.00  
 147    2:50      0   42.8    80    4.6   345     8.2   833.8   0.00  
 147    3:00      0   42.7    81    5.1     1     9.0   833.9   0.00  
 147    3:10      0   43.3    79    5.2     1     9.3   833.9   0.00  
 147    3:20      0   43.5    79    5.1   353     7.5   833.9   0.00  
 147    3:30      0   43.4    79    6.5   348    10.4   833.8   0.00  
 147    3:40      0   43.0    79    6.4   349    10.2   833.8   0.00  
 147    3:50      0   42.2    81    6.1   352     8.5   833.8   0.00  
 147    4:00      0   41.7    82    6.9   350     9.2   833.8   0.00  
 147    4:10      0   41.8    82    6.8   351     9.6   833.8   0.00  
 147    4:20      3   41.2    83    5.6   355     9.4   833.8   0.00  
 147    4:30      5   40.4    84    7.2   351    10.0   833.8   0.00  
 147    4:40      8   40.9    84    6.9   353    10.2   833.9   0.00  
 147    4:50     14   41.5    82    6.5   360     9.3   834.0   0.00  
 147    5:00     60   41.9    81    7.4   349    10.4   834.1   0.00  
 147    5:10     95   42.3    80    8.2   348    10.9   834.1   0.00  
 147    5:20    126   42.8    79    8.0   350    12.6   834.2   0.00  
 147    5:30    157   43.9    77    7.4   358    10.5   834.2   0.00  
 147    5:40    186   45.3    74    8.0     2    12.4   834.4   0.00  
 147    5:50    164   46.1    73    8.3     2    13.3   834.4   0.00  
 147    6:00    237   46.5    73    7.0     2    10.6   834.3   0.00  
 147    6:10    282   48.0    69    8.9     4    14.0   834.4   0.00  
 147    6:20    313   48.9    68    8.2     0    12.0   834.4   0.00  
 147    6:30    347   49.2    68    8.5   355    13.1   834.3   0.00  
 147    6:40    381   49.5    67   10.1   342    15.9   834.3   0.00  
 147    6:50    415   50.0    65   11.4   346    16.3   834.4   0.00  
 147    7:00    447   50.8    63   11.2   349    18.1   834.4   0.00  
 147    7:10    481   51.4    62   10.9   344    15.9   834.4   0.00  
 147    7:20    513   52.0    60   11.7   340    16.3   834.4   0.00  
 147    7:30    546   52.5    59   11.8   339    18.0   834.3   0.00  
 147    7:40    577   52.9    58   10.9   340    16.4   834.2   0.00  
 147    7:50    608   53.4    56   10.7   347    15.2   834.2   0.00  
 147    8:00    639   54.4    55    9.8   345    16.9   834.2   0.00  
 147    8:10    671   54.5    54   10.1   344    14.8   834.1   0.00  
 147    8:20    700   55.2    53    9.2   348    16.1   834.1   0.00  
 147    8:30    719   55.9    51    8.8   346    14.5   834.1   0.00  
 147    8:40    692   56.4    50    9.4   347    17.2   834.1   0.00  
 147    8:50    671   56.8    48    9.2   340    14.1   834.0   0.00  
 147    9:00    784   57.1    48   10.3   344    17.0   834.0   0.00  
 147    9:10    871   57.7    46    9.9   342    16.5   833.9   0.00  
 147    9:20    896   58.2    45    9.1   340    15.8   833.9   0.00  
 147    9:30    916   58.5    45   10.2   335    18.1   833.9   0.00  
 147    9:40    936   58.4    43   11.3   334    17.6   834.0   0.00  
 147    9:50    951   58.9    40   10.5   337    16.9   834.0   0.00  
 147   10:00    963   59.9    39    8.8   350    21.0   834.0   0.00  

Return to Duckwater graphs page.


Western Regional Climate Center,wrcc@dri.edu